sensor_id;sensor_type;location;lat;lon;timestamp;pressure;altitude;pressure_sealevel;temperature;humidity
8705;BME280;4389;41.932;25.904;2023-02-28T00:01:22;101009.31;;;14.24;92.34
8705;BME280;4389;41.932;25.904;2023-02-28T00:03:50;101013.69;;;14.25;92.26
8705;BME280;4389;41.932;25.904;2023-02-28T00:06:17;101022.25;;;14.19;92.35
8705;BME280;4389;41.932;25.904;2023-02-28T00:08:44;101026.59;;;14.01;91.95
8705;BME280;4389;41.932;25.904;2023-02-28T00:11:14;101035.56;;;14.00;92.35
8705;BME280;4389;41.932;25.904;2023-02-28T00:13:43;101025.38;;;13.86;92.76
8705;BME280;4389;41.932;25.904;2023-02-28T00:16:14;101017.72;;;13.73;92.43
8705;BME280;4389;41.932;25.904;2023-02-28T00:18:41;101019.38;;;13.74;92.40
8705;BME280;4389;41.932;25.904;2023-02-28T00:21:08;101023.16;;;13.81;92.67
8705;BME280;4389;41.932;25.904;2023-02-28T00:23:36;101019.63;;;13.81;92.68
8705;BME280;4389;41.932;25.904;2023-02-28T00:26:03;101024.41;;;13.77;93.00
8705;BME280;4389;41.932;25.904;2023-02-28T00:28:31;101037.56;;;13.79;93.57
8705;BME280;4389;41.932;25.904;2023-02-28T00:30:58;101041.47;;;13.84;93.96
8705;BME280;4389;41.932;25.904;2023-02-28T00:33:26;101044.31;;;13.83;94.26
8705;BME280;4389;41.932;25.904;2023-02-28T00:36:01;101042.03;;;13.88;93.80
8705;BME280;4389;41.932;25.904;2023-02-28T00:38:28;101041.63;;;13.83;93.63
8705;BME280;4389;41.932;25.904;2023-02-28T00:40:55;101029.88;;;13.85;93.67
8705;BME280;4389;41.932;25.904;2023-02-28T00:43:22;101033.34;;;13.86;93.98
8705;BME280;4389;41.932;25.904;2023-02-28T00:45:51;101041.63;;;13.83;93.37
8705;BME280;4389;41.932;25.904;2023-02-28T00:48:18;101050.63;;;13.63;91.95
8705;BME280;4389;41.932;25.904;2023-02-28T00:50:48;101048.13;;;13.33;91.68
8705;BME280;4389;41.932;25.904;2023-02-28T00:53:15;101047.88;;;12.87;92.11
8705;BME280;4389;41.932;25.904;2023-02-28T00:55:42;101047.00;;;12.77;92.00
8705;BME280;4389;41.932;25.904;2023-02-28T00:58:09;101051.34;;;12.78;93.45
8705;BME280;4389;41.932;25.904;2023-02-28T01:00:35;101055.97;;;12.86;93.50
8705;BME280;4389;41.932;25.904;2023-02-28T01:03:04;101060.88;;;12.90;93.15
8705;BME280;4389;41.932;25.904;2023-02-28T01:05:31;101053.50;;;12.94;93.30
8705;BME280;4389;41.932;25.904;2023-02-28T01:07:58;101062.22;;;13.05;93.29
8705;BME280;4389;41.932;25.904;2023-02-28T01:10:25;101061.91;;;13.08;93.93
8705;BME280;4389;41.932;25.904;2023-02-28T01:12:52;101067.97;;;12.80;93.44
8705;BME280;4389;41.932;25.904;2023-02-28T01:15:19;101072.44;;;12.70;94.56
8705;BME280;4389;41.932;25.904;2023-02-28T01:17:45;101071.00;;;12.66;94.66
8705;BME280;4389;41.932;25.904;2023-02-28T01:20:14;101072.88;;;12.45;95.66
8705;BME280;4389;41.932;25.904;2023-02-28T01:22:41;101068.03;;;12.50;96.26
8705;BME280;4389;41.932;25.904;2023-02-28T01:25:08;101066.94;;;12.32;95.33
8705;BME280;4389;41.932;25.904;2023-02-28T01:27:34;101068.34;;;12.06;95.37
8705;BME280;4389;41.932;25.904;2023-02-28T01:30:02;101076.72;;;12.02;95.19
8705;BME280;4389;41.932;25.904;2023-02-28T01:32:29;101070.88;;;11.87;94.13
8705;BME280;4389;41.932;25.904;2023-02-28T01:34:56;101064.50;;;11.69;94.31
8705;BME280;4389;41.932;25.904;2023-02-28T01:37:24;101066.22;;;11.59;95.23
8705;BME280;4389;41.932;25.904;2023-02-28T01:39:51;101081.34;;;11.68;95.51
8705;BME280;4389;41.932;25.904;2023-02-28T01:42:18;101083.69;;;11.82;96.10
8705;BME280;4389;41.932;25.904;2023-02-28T01:45:10;101081.75;;;11.84;95.46
8705;BME280;4389;41.932;25.904;2023-02-28T01:47:43;101085.38;;;11.83;95.52
8705;BME280;4389;41.932;25.904;2023-02-28T01:50:15;101103.47;;;11.78;95.80
8705;BME280;4389;41.932;25.904;2023-02-28T01:52:45;101095.56;;;11.67;95.45
8705;BME280;4389;41.932;25.904;2023-02-28T01:55:15;101104.06;;;11.50;94.13
8705;BME280;4389;41.932;25.904;2023-02-28T01:57:45;101100.44;;;11.51;94.03
8705;BME280;4389;41.932;25.904;2023-02-28T02:00:15;101108.50;;;11.50;94.51
8705;BME280;4389;41.932;25.904;2023-02-28T02:02:44;101118.72;;;11.65;94.34
8705;BME280;4389;41.932;25.904;2023-02-28T02:05:15;101118.16;;;11.51;93.56
8705;BME280;4389;41.932;25.904;2023-02-28T02:07:45;101114.88;;;11.58;94.36
8705;BME280;4389;41.932;25.904;2023-02-28T02:10:15;101113.41;;;11.65;93.19
8705;BME280;4389;41.932;25.904;2023-02-28T02:13:05;101113.22;;;11.78;93.06
8705;BME280;4389;41.932;25.904;2023-02-28T02:15:40;101114.13;;;11.67;92.85
8705;BME280;4389;41.932;25.904;2023-02-28T02:18:18;101110.19;;;11.82;92.00
8705;BME280;4389;41.932;25.904;2023-02-28T02:24:23;101125.19;;;11.72;92.27
8705;BME280;4389;41.932;25.904;2023-02-28T02:27:16;101127.38;;;11.67;91.80
8705;BME280;4389;41.932;25.904;2023-02-28T02:30:14;101130.06;;;11.56;91.78
8705;BME280;4389;41.932;25.904;2023-02-28T02:35:52;101149.88;;;11.30;92.90
8705;BME280;4389;41.932;25.904;2023-02-28T02:38:30;101144.34;;;11.22;93.30
8705;BME280;4389;41.932;25.904;2023-02-28T02:41:04;101148.72;;;11.01;93.84
8705;BME280;4389;41.932;25.904;2023-02-28T02:43:36;101146.78;;;11.03;94.94
8705;BME280;4389;41.932;25.904;2023-02-28T02:46:07;101134.63;;;11.12;94.46
8705;BME280;4389;41.932;25.904;2023-02-28T02:48:38;101146.06;;;11.12;93.84
8705;BME280;4389;41.932;25.904;2023-02-28T02:51:13;101147.00;;;11.11;93.51
8705;BME280;4389;41.932;25.904;2023-02-28T02:53:46;101144.84;;;11.16;94.19
8705;BME280;4389;41.932;25.904;2023-02-28T02:56:19;101143.88;;;11.17;93.31
8705;BME280;4389;41.932;25.904;2023-02-28T02:58:49;101154.72;;;11.14;93.65
8705;BME280;4389;41.932;25.904;2023-02-28T03:01:20;101159.44;;;11.11;93.20
8705;BME280;4389;41.932;25.904;2023-02-28T03:03:54;101160.84;;;11.15;92.94
8705;BME280;4389;41.932;25.904;2023-02-28T03:06:24;101161.47;;;11.07;93.11
8705;BME280;4389;41.932;25.904;2023-02-28T03:08:51;101168.44;;;10.97;93.38
8705;BME280;4389;41.932;25.904;2023-02-28T03:11:19;101157.25;;;10.94;93.52
8705;BME280;4389;41.932;25.904;2023-02-28T03:14:05;101158.00;;;10.85;93.64
8705;BME280;4389;41.932;25.904;2023-02-28T03:19:41;101167.50;;;10.87;94.10
8705;BME280;4389;41.932;25.904;2023-02-28T03:25:21;101172.19;;;10.84;92.45
8705;BME280;4389;41.932;25.904;2023-02-28T03:27:55;101170.53;;;10.83;92.96
8705;BME280;4389;41.932;25.904;2023-02-28T03:30:29;101164.38;;;10.82;92.94
8705;BME280;4389;41.932;25.904;2023-02-28T03:33:03;101161.97;;;10.68;93.51
8705;BME280;4389;41.932;25.904;2023-02-28T03:35:34;101166.19;;;10.71;93.38
8705;BME280;4389;41.932;25.904;2023-02-28T03:38:08;101163.41;;;10.72;93.12
8705;BME280;4389;41.932;25.904;2023-02-28T03:40:43;101161.97;;;10.68;94.02
8705;BME280;4389;41.932;25.904;2023-02-28T03:43:15;101162.09;;;10.67;93.21
8705;BME280;4389;41.932;25.904;2023-02-28T03:45:46;101168.72;;;10.72;93.55
8705;BME280;4389;41.932;25.904;2023-02-28T03:48:19;101170.41;;;10.73;92.77
8705;BME280;4389;41.932;25.904;2023-02-28T03:50:50;101176.63;;;10.61;92.37
8705;BME280;4389;41.932;25.904;2023-02-28T03:53:25;101170.88;;;10.67;92.70
8705;BME280;4389;41.932;25.904;2023-02-28T03:55:56;101171.59;;;10.58;92.65
8705;BME280;4389;41.932;25.904;2023-02-28T03:58:27;101164.84;;;10.54;93.53
8705;BME280;4389;41.932;25.904;2023-02-28T04:01:02;101179.50;;;10.47;93.24
8705;BME280;4389;41.932;25.904;2023-02-28T04:03:35;101179.03;;;10.53;93.73
8705;BME280;4389;41.932;25.904;2023-02-28T04:06:02;101177.34;;;10.52;93.83
8705;BME280;4389;41.932;25.904;2023-02-28T04:08:32;101170.75;;;10.47;93.52
8705;BME280;4389;41.932;25.904;2023-02-28T04:11:01;101170.84;;;10.45;93.92
8705;BME280;4389;41.932;25.904;2023-02-28T04:13:31;101186.25;;;10.51;93.08
8705;BME280;4389;41.932;25.904;2023-02-28T04:15:58;101188.03;;;10.40;93.18
8705;BME280;4389;41.932;25.904;2023-02-28T04:18:25;101192.97;;;10.44;93.08
8705;BME280;4389;41.932;25.904;2023-02-28T04:20:51;101199.34;;;10.31;92.94
8705;BME280;4389;41.932;25.904;2023-02-28T04:23:18;101215.81;;;10.34;93.50
8705;BME280;4389;41.932;25.904;2023-02-28T04:25:47;101225.53;;;10.34;93.42
8705;BME280;4389;41.932;25.904;2023-02-28T04:28:14;101229.97;;;10.33;93.75
8705;BME280;4389;41.932;25.904;2023-02-28T04:30:41;101230.22;;;10.30;93.16
8705;BME280;4389;41.932;25.904;2023-02-28T04:33:08;101224.69;;;10.33;93.10
8705;BME280;4389;41.932;25.904;2023-02-28T04:35:35;101230.66;;;10.24;92.90
8705;BME280;4389;41.932;25.904;2023-02-28T04:38:02;101227.63;;;10.41;93.25
8705;BME280;4389;41.932;25.904;2023-02-28T04:40:29;101219.31;;;10.46;93.01
8705;BME280;4389;41.932;25.904;2023-02-28T04:42:57;101228.91;;;10.36;92.56
8705;BME280;4389;41.932;25.904;2023-02-28T04:45:24;101237.66;;;10.25;91.96
8705;BME280;4389;41.932;25.904;2023-02-28T04:47:52;101246.16;;;10.18;92.26
8705;BME280;4389;41.932;25.904;2023-02-28T04:50:19;101247.56;;;10.34;92.46
8705;BME280;4389;41.932;25.904;2023-02-28T04:52:45;101249.91;;;10.26;91.97
8705;BME280;4389;41.932;25.904;2023-02-28T04:55:12;101258.94;;;10.24;91.71
8705;BME280;4389;41.932;25.904;2023-02-28T04:57:39;101253.66;;;10.35;92.21
8705;BME280;4389;41.932;25.904;2023-02-28T05:00:10;101268.22;;;10.40;91.57
8705;BME280;4389;41.932;25.904;2023-02-28T05:02:38;101268.97;;;10.42;91.09
8705;BME280;4389;41.932;25.904;2023-02-28T05:05:05;101268.22;;;10.40;90.66
8705;BME280;4389;41.932;25.904;2023-02-28T05:07:32;101272.91;;;10.37;90.92
8705;BME280;4389;41.932;25.904;2023-02-28T05:09:59;101276.41;;;10.37;90.88
8705;BME280;4389;41.932;25.904;2023-02-28T05:12:26;101286.47;;;10.32;90.23
8705;BME280;4389;41.932;25.904;2023-02-28T05:14:53;101289.03;;;10.34;90.33
8705;BME280;4389;41.932;25.904;2023-02-28T05:17:21;101300.47;;;10.34;90.62
8705;BME280;4389;41.932;25.904;2023-02-28T05:19:48;101301.38;;;10.33;90.73
8705;BME280;4389;41.932;25.904;2023-02-28T05:22:15;101302.34;;;10.32;90.50
8705;BME280;4389;41.932;25.904;2023-02-28T05:24:42;101302.75;;;10.39;90.50
8705;BME280;4389;41.932;25.904;2023-02-28T05:27:09;101310.63;;;10.28;91.15
8705;BME280;4389;41.932;25.904;2023-02-28T05:29:36;101322.53;;;10.33;89.86
8705;BME280;4389;41.932;25.904;2023-02-28T05:32:08;101322.84;;;10.41;89.89
8705;BME280;4389;41.932;25.904;2023-02-28T05:34:37;101323.78;;;10.40;89.78
8705;BME280;4389;41.932;25.904;2023-02-28T05:37:04;101322.44;;;10.35;90.60
8705;BME280;4389;41.932;25.904;2023-02-28T05:39:31;101313.16;;;10.29;90.76
8705;BME280;4389;41.932;25.904;2023-02-28T05:41:58;101320.66;;;10.35;90.13
8705;BME280;4389;41.932;25.904;2023-02-28T05:44:25;101315.38;;;10.46;90.31
8705;BME280;4389;41.932;25.904;2023-02-28T05:46:52;101313.09;;;10.42;90.50
8705;BME280;4389;41.932;25.904;2023-02-28T05:49:19;101323.13;;;10.60;90.00
8705;BME280;4389;41.932;25.904;2023-02-28T05:51:47;101326.28;;;10.65;88.86
8705;BME280;4389;41.932;25.904;2023-02-28T05:54:14;101321.84;;;10.66;89.05
8705;BME280;4389;41.932;25.904;2023-02-28T05:56:41;101329.91;;;10.64;88.40
8705;BME280;4389;41.932;25.904;2023-02-28T05:59:09;101334.75;;;10.70;88.69
8705;BME280;4389;41.932;25.904;2023-02-28T06:01:38;101345.84;;;10.86;88.63
8705;BME280;4389;41.932;25.904;2023-02-28T06:04:07;101355.72;;;10.95;88.28
8705;BME280;4389;41.932;25.904;2023-02-28T06:06:34;101347.78;;;10.95;87.47
8705;BME280;4389;41.932;25.904;2023-02-28T06:09:03;101347.56;;;10.98;87.86
8705;BME280;4389;41.932;25.904;2023-02-28T06:11:30;101354.56;;;11.10;87.64
8705;BME280;4389;41.932;25.904;2023-02-28T06:13:57;101359.16;;;11.19;87.13
8705;BME280;4389;41.932;25.904;2023-02-28T06:16:25;101361.69;;;11.21;86.31
8705;BME280;4389;41.932;25.904;2023-02-28T06:18:52;101363.25;;;11.12;87.49
8705;BME280;4389;41.932;25.904;2023-02-28T06:21:21;101376.44;;;11.01;87.63
8705;BME280;4389;41.932;25.904;2023-02-28T06:23:48;101376.00;;;11.07;87.20
8705;BME280;4389;41.932;25.904;2023-02-28T06:26:17;101384.28;;;11.03;87.09
8705;BME280;4389;41.932;25.904;2023-02-28T06:28:43;101385.97;;;11.04;87.21
8705;BME280;4389;41.932;25.904;2023-02-28T06:31:12;101393.72;;;11.18;87.45
8705;BME280;4389;41.932;25.904;2023-02-28T06:33:40;101386.47;;;11.20;86.57
8705;BME280;4389;41.932;25.904;2023-02-28T06:36:09;101384.44;;;11.23;86.20
8705;BME280;4389;41.932;25.904;2023-02-28T06:38:36;101376.06;;;11.40;85.90
8705;BME280;4389;41.932;25.904;2023-02-28T06:41:04;101383.78;;;11.65;85.85
8705;BME280;4389;41.932;25.904;2023-02-28T06:43:35;101391.03;;;11.63;84.91
8705;BME280;4389;41.932;25.904;2023-02-28T06:46:05;101390.56;;;11.69;84.87
8705;BME280;4389;41.932;25.904;2023-02-28T06:48:33;101382.22;;;11.96;83.70
8705;BME280;4389;41.932;25.904;2023-02-28T06:51:04;101383.75;;;12.09;83.13
8705;BME280;4389;41.932;25.904;2023-02-28T06:53:32;101382.69;;;11.79;83.14
8705;BME280;4389;41.932;25.904;2023-02-28T06:55:59;101393.94;;;11.71;84.53
8705;BME280;4389;41.932;25.904;2023-02-28T06:58:25;101401.84;;;11.49;85.00
8705;BME280;4389;41.932;25.904;2023-02-28T07:00:54;101394.75;;;11.83;85.29
8705;BME280;4389;41.932;25.904;2023-02-28T07:03:21;101395.44;;;12.07;83.85
8705;BME280;4389;41.932;25.904;2023-02-28T07:05:48;101398.25;;;11.94;83.45
8705;BME280;4389;41.932;25.904;2023-02-28T07:08:16;101393.91;;;11.93;84.84
8705;BME280;4389;41.932;25.904;2023-02-28T07:10:43;101396.56;;;11.93;83.59
8705;BME280;4389;41.932;25.904;2023-02-28T07:13:11;101392.81;;;11.96;84.87
8705;BME280;4389;41.932;25.904;2023-02-28T07:15:38;101396.06;;;11.88;83.89
8705;BME280;4389;41.932;25.904;2023-02-28T07:18:06;101400.44;;;11.78;83.83
8705;BME280;4389;41.932;25.904;2023-02-28T07:20:33;101399.44;;;11.68;85.15
8705;BME280;4389;41.932;25.904;2023-02-28T07:23:00;101394.41;;;11.87;84.95
8705;BME280;4389;41.932;25.904;2023-02-28T07:25:28;101391.97;;;11.95;83.73
8705;BME280;4389;41.932;25.904;2023-02-28T07:27:55;101391.50;;;12.01;83.95
8705;BME280;4389;41.932;25.904;2023-02-28T07:30:22;101396.31;;;11.96;84.32
8705;BME280;4389;41.932;25.904;2023-02-28T07:32:49;101398.50;;;11.69;84.19
8705;BME280;4389;41.932;25.904;2023-02-28T07:35:17;101404.28;;;11.85;84.36
8705;BME280;4389;41.932;25.904;2023-02-28T07:37:44;101403.88;;;12.23;83.95
8705;BME280;4389;41.932;25.904;2023-02-28T07:40:13;101414.06;;;12.49;81.98
8705;BME280;4389;41.932;25.904;2023-02-28T07:42:41;101408.88;;;12.79;81.61
8705;BME280;4389;41.932;25.904;2023-02-28T07:45:10;101402.78;;;12.68;80.18
8705;BME280;4389;41.932;25.904;2023-02-28T07:47:37;101408.22;;;12.66;80.72
8705;BME280;4389;41.932;25.904;2023-02-28T07:50:05;101411.63;;;12.57;81.68
8705;BME280;4389;41.932;25.904;2023-02-28T07:52:33;101409.03;;;12.24;82.73
8705;BME280;4389;41.932;25.904;2023-02-28T07:55:00;101410.06;;;12.12;84.37
8705;BME280;4389;41.932;25.904;2023-02-28T07:57:27;101403.31;;;11.86;85.77
8705;BME280;4389;41.932;25.904;2023-02-28T07:59:53;101410.31;;;11.87;86.08
8705;BME280;4389;41.932;25.904;2023-02-28T08:02:20;101403.66;;;12.04;85.56
8705;BME280;4389;41.932;25.904;2023-02-28T08:04:47;101404.75;;;12.12;85.51
8705;BME280;4389;41.932;25.904;2023-02-28T08:07:14;101412.84;;;12.53;85.06
8705;BME280;4389;41.932;25.904;2023-02-28T08:09:43;101415.56;;;12.94;83.32
8705;BME280;4389;41.932;25.904;2023-02-28T08:12:11;101413.63;;;13.07;82.66
8705;BME280;4389;41.932;25.904;2023-02-28T08:14:38;101422.97;;;13.02;82.13
8705;BME280;4389;41.932;25.904;2023-02-28T08:17:05;101433.53;;;13.33;80.82
8705;BME280;4389;41.932;25.904;2023-02-28T08:19:32;101428.06;;;13.35;80.28
8705;BME280;4389;41.932;25.904;2023-02-28T08:21:58;101419.13;;;13.56;79.90
8705;BME280;4389;41.932;25.904;2023-02-28T08:24:25;101421.16;;;13.23;80.34
8705;BME280;4389;41.932;25.904;2023-02-28T08:26:53;101418.03;;;12.97;80.04
8705;BME280;4389;41.932;25.904;2023-02-28T08:29:20;101419.13;;;13.15;81.29
8705;BME280;4389;41.932;25.904;2023-02-28T08:31:47;101415.84;;;13.23;80.82
8705;BME280;4389;41.932;25.904;2023-02-28T08:34:15;101420.16;;;13.44;80.39
8705;BME280;4389;41.932;25.904;2023-02-28T08:36:43;101422.63;;;13.36;79.61
8705;BME280;4389;41.932;25.904;2023-02-28T08:39:10;101422.09;;;13.42;79.00
8705;BME280;4389;41.932;25.904;2023-02-28T08:41:37;101418.00;;;13.38;79.25
8705;BME280;4389;41.932;25.904;2023-02-28T08:44:05;101410.69;;;13.51;79.23
8705;BME280;4389;41.932;25.904;2023-02-28T08:46:32;101420.78;;;13.57;80.25
8705;BME280;4389;41.932;25.904;2023-02-28T08:48:59;101417.78;;;13.71;80.62
8705;BME280;4389;41.932;25.904;2023-02-28T08:51:28;101426.47;;;13.73;80.42
8705;BME280;4389;41.932;25.904;2023-02-28T08:53:57;101416.69;;;13.73;80.57
8705;BME280;4389;41.932;25.904;2023-02-28T08:56:26;101414.78;;;13.55;81.31
8705;BME280;4389;41.932;25.904;2023-02-28T08:58:56;101424.50;;;13.45;82.71
8705;BME280;4389;41.932;25.904;2023-02-28T09:01:26;101425.75;;;13.41;83.25
8705;BME280;4389;41.932;25.904;2023-02-28T09:03:55;101428.84;;;13.46;83.53
8705;BME280;4389;41.932;25.904;2023-02-28T09:06:25;101420.22;;;13.54;83.70
8705;BME280;4389;41.932;25.904;2023-02-28T09:08:56;101431.06;;;13.41;82.66
8705;BME280;4389;41.932;25.904;2023-02-28T09:11:25;101419.22;;;13.75;83.59
8705;BME280;4389;41.932;25.904;2023-02-28T09:13:52;101404.88;;;13.96;81.17
8705;BME280;4389;41.932;25.904;2023-02-28T09:16:21;101406.81;;;14.24;80.75
8705;BME280;4389;41.932;25.904;2023-02-28T09:18:49;101409.97;;;14.67;79.87
8705;BME280;4389;41.932;25.904;2023-02-28T09:21:17;101402.41;;;14.82;79.86
8705;BME280;4389;41.932;25.904;2023-02-28T09:23:47;101401.00;;;14.78;79.38
8705;BME280;4389;41.932;25.904;2023-02-28T09:26:16;101401.31;;;14.16;80.36
8705;BME280;4389;41.932;25.904;2023-02-28T09:28:45;101400.25;;;14.38;81.32
8705;BME280;4389;41.932;25.904;2023-02-28T09:31:14;101405.03;;;14.44;80.08
8705;BME280;4389;41.932;25.904;2023-02-28T09:33:42;101397.59;;;13.89;81.39
8705;BME280;4389;41.932;25.904;2023-02-28T09:36:10;101392.13;;;14.00;82.81
8705;BME280;4389;41.932;25.904;2023-02-28T09:38:37;101395.06;;;14.27;81.00
8705;BME280;4389;41.932;25.904;2023-02-28T09:41:12;101390.50;;;14.08;79.84
8705;BME280;4389;41.932;25.904;2023-02-28T09:43:43;101386.38;;;14.44;80.32
8705;BME280;4389;41.932;25.904;2023-02-28T09:46:21;101382.66;;;14.16;81.00
8705;BME280;4389;41.932;25.904;2023-02-28T09:48:53;101380.22;;;14.62;79.27
8705;BME280;4389;41.932;25.904;2023-02-28T09:51:30;101386.09;;;14.28;80.84
8705;BME280;4389;41.932;25.904;2023-02-28T09:54:00;101384.28;;;14.47;79.99
8705;BME280;4389;41.932;25.904;2023-02-28T09:56:32;101387.75;;;14.29;80.38
8705;BME280;4389;41.932;25.904;2023-02-28T09:59:02;101386.63;;;14.22;81.23
8705;BME280;4389;41.932;25.904;2023-02-28T10:01:34;101387.38;;;14.03;80.76
8705;BME280;4389;41.932;25.904;2023-02-28T10:04:08;101390.88;;;14.34;79.47
8705;BME280;4389;41.932;25.904;2023-02-28T10:06:41;101397.31;;;14.41;79.19
8705;BME280;4389;41.932;25.904;2023-02-28T10:09:14;101401.84;;;14.69;78.31
8705;BME280;4389;41.932;25.904;2023-02-28T10:11:44;101403.63;;;15.16;76.55
8705;BME280;4389;41.932;25.904;2023-02-28T10:14:14;101400.13;;;15.25;76.35
8705;BME280;4389;41.932;25.904;2023-02-28T10:16:45;101393.13;;;15.14;75.75
8705;BME280;4389;41.932;25.904;2023-02-28T10:19:20;101383.84;;;15.18;75.78
8705;BME280;4389;41.932;25.904;2023-02-28T10:21:55;101386.94;;;14.95;76.51
8705;BME280;4389;41.932;25.904;2023-02-28T10:24:27;101376.59;;;14.54;78.35
8705;BME280;4389;41.932;25.904;2023-02-28T10:27:00;101379.69;;;14.49;79.08
8705;BME280;4389;41.932;25.904;2023-02-28T10:29:28;101374.75;;;15.02;76.90
8705;BME280;4389;41.932;25.904;2023-02-28T10:31:59;101377.44;;;14.83;77.83
8705;BME280;4389;41.932;25.904;2023-02-28T10:34:27;101376.63;;;14.63;77.94
8705;BME280;4389;41.932;25.904;2023-02-28T10:36:56;101374.91;;;14.43;78.13
8705;BME280;4389;41.932;25.904;2023-02-28T10:39:40;101367.63;;;14.45;79.52
8705;BME280;4389;41.932;25.904;2023-02-28T10:42:22;101367.78;;;14.04;78.86
8705;BME280;4389;41.932;25.904;2023-02-28T10:45:14;101365.28;;;14.03;79.37
8705;BME280;4389;41.932;25.904;2023-02-28T10:47:51;101363.38;;;14.24;79.26
8705;BME280;4389;41.932;25.904;2023-02-28T10:50:31;101362.28;;;14.36;78.10
8705;BME280;4389;41.932;25.904;2023-02-28T10:53:14;101352.47;;;14.27;78.25
8705;BME280;4389;41.932;25.904;2023-02-28T10:55:42;101338.00;;;14.20;78.42
8705;BME280;4389;41.932;25.904;2023-02-28T10:58:22;101326.06;;;14.05;78.63
8705;BME280;4389;41.932;25.904;2023-02-28T11:00:50;101327.72;;;14.06;78.99
8705;BME280;4389;41.932;25.904;2023-02-28T11:03:34;101317.03;;;13.87;79.38
8705;BME280;4389;41.932;25.904;2023-02-28T11:06:06;101326.00;;;13.86;79.73
8705;BME280;4389;41.932;25.904;2023-02-28T11:08:44;101323.34;;;13.86;80.05
8705;BME280;4389;41.932;25.904;2023-02-28T11:11:12;101328.22;;;13.81;79.42
8705;BME280;4389;41.932;25.904;2023-02-28T11:13:39;101320.59;;;13.67;79.55
8705;BME280;4389;41.932;25.904;2023-02-28T11:16:09;101320.59;;;13.67;80.52
8705;BME280;4389;41.932;25.904;2023-02-28T11:18:41;101320.59;;;13.58;80.13
8705;BME280;4389;41.932;25.904;2023-02-28T11:21:10;101314.16;;;13.60;80.01
8705;BME280;4389;41.932;25.904;2023-02-28T11:23:44;101310.91;;;13.57;80.86
8705;BME280;4389;41.932;25.904;2023-02-28T11:26:11;101315.28;;;13.58;80.06
8705;BME280;4389;41.932;25.904;2023-02-28T11:28:39;101314.84;;;13.53;80.78
8705;BME280;4389;41.932;25.904;2023-02-28T11:31:17;101317.41;;;13.73;81.28
8705;BME280;4389;41.932;25.904;2023-02-28T11:33:48;101318.72;;;13.78;79.42
8705;BME280;4389;41.932;25.904;2023-02-28T11:36:19;101311.56;;;13.79;79.40
8705;BME280;4389;41.932;25.904;2023-02-28T11:38:48;101297.69;;;13.75;79.30
8705;BME280;4389;41.932;25.904;2023-02-28T11:41:34;101304.59;;;13.87;80.61
8705;BME280;4389;41.932;25.904;2023-02-28T11:44:21;101305.84;;;13.93;78.59
8705;BME280;4389;41.932;25.904;2023-02-28T11:46:52;101309.72;;;13.70;80.43
8705;BME280;4389;41.932;25.904;2023-02-28T11:49:31;101310.94;;;13.66;79.73
8705;BME280;4389;41.932;25.904;2023-02-28T11:52:02;101314.72;;;13.54;80.34
8705;BME280;4389;41.932;25.904;2023-02-28T11:54:50;101310.31;;;13.44;80.50
8705;BME280;4389;41.932;25.904;2023-02-28T11:57:35;101319.94;;;13.35;80.92
8705;BME280;4389;41.932;25.904;2023-02-28T12:00:12;101296.28;;;13.32;81.01
8705;BME280;4389;41.932;25.904;2023-02-28T12:02:54;101289.00;;;13.04;82.28
8705;BME280;4389;41.932;25.904;2023-02-28T12:05:30;101292.25;;;13.08;82.80
8705;BME280;4389;41.932;25.904;2023-02-28T12:08:07;101298.84;;;13.13;82.00
8705;BME280;4389;41.932;25.904;2023-02-28T12:10:51;101296.09;;;13.24;81.93
8705;BME280;4389;41.932;25.904;2023-02-28T12:13:25;101301.97;;;13.18;81.87
8705;BME280;4389;41.932;25.904;2023-02-28T12:16:32;101290.69;;;13.05;83.05
8705;BME280;4389;41.932;25.904;2023-02-28T12:19:15;101301.84;;;12.99;82.54
8705;BME280;4389;41.932;25.904;2023-02-28T12:21:56;101303.25;;;13.03;84.62
8705;BME280;4389;41.932;25.904;2023-02-28T12:24:42;101305.19;;;13.01;84.09
8705;BME280;4389;41.932;25.904;2023-02-28T12:27:16;101308.44;;;12.84;84.14
8705;BME280;4389;41.932;25.904;2023-02-28T12:29:47;101308.28;;;12.65;85.98
8705;BME280;4389;41.932;25.904;2023-02-28T12:32:18;101297.94;;;12.83;86.38
8705;BME280;4389;41.932;25.904;2023-02-28T12:34:50;101297.09;;;12.62;86.02
8705;BME280;4389;41.932;25.904;2023-02-28T12:37:22;101295.81;;;12.45;88.51
8705;BME280;4389;41.932;25.904;2023-02-28T12:39:54;101298.69;;;12.53;88.31
8705;BME280;4389;41.932;25.904;2023-02-28T12:42:30;101294.63;;;12.49;89.43
8705;BME280;4389;41.932;25.904;2023-02-28T12:45:01;101286.06;;;12.46;89.86
8705;BME280;4389;41.932;25.904;2023-02-28T12:47:29;101294.22;;;12.33;89.81
8705;BME280;4389;41.932;25.904;2023-02-28T12:49:58;101285.81;;;12.17;89.54
8705;BME280;4389;41.932;25.904;2023-02-28T12:52:31;101280.59;;;12.27;90.48
8705;BME280;4389;41.932;25.904;2023-02-28T12:55:07;101271.31;;;11.90;90.96
8705;BME280;4389;41.932;25.904;2023-02-28T12:57:45;101277.75;;;11.76;92.23
8705;BME280;4389;41.932;25.904;2023-02-28T13:00:16;101265.16;;;11.89;93.28
8705;BME280;4389;41.932;25.904;2023-02-28T13:02:55;101268.34;;;11.72;91.97
8705;BME280;4389;41.932;25.904;2023-02-28T13:05:49;101272.56;;;11.75;93.66
8705;BME280;4389;41.932;25.904;2023-02-28T13:08:57;101276.97;;;11.96;93.84
8705;BME280;4389;41.932;25.904;2023-02-28T13:11:28;101277.97;;;11.84;94.60
8705;BME280;4389;41.932;25.904;2023-02-28T13:14:00;101281.59;;;11.83;93.64
8705;BME280;4389;41.932;25.904;2023-02-28T13:16:27;101275.56;;;11.81;94.06
8705;BME280;4389;41.932;25.904;2023-02-28T13:19:09;101276.91;;;11.65;93.85
8705;BME280;4389;41.932;25.904;2023-02-28T13:21:43;101277.88;;;11.75;94.75
8705;BME280;4389;41.932;25.904;2023-02-28T13:24:45;101286.56;;;11.66;94.55
8705;BME280;4389;41.932;25.904;2023-02-28T13:27:34;101275.94;;;11.55;95.55
8705;BME280;4389;41.932;25.904;2023-02-28T13:33:34;101274.13;;;11.66;96.97
8705;BME280;4389;41.932;25.904;2023-02-28T13:36:09;101274.84;;;11.57;96.63